sensor_id;sensor_type;location;lat;lon;timestamp;P1;durP1;ratioP1;P2;durP2;ratioP2
10154;SDS011;5118;48.570;7.916;2022-11-10T00:00:46;19.00;;;14.97;;
10154;SDS011;5118;48.570;7.916;2022-11-10T00:03:33;26.57;;;19.27;;
10154;SDS011;5118;48.570;7.916;2022-11-10T00:06:21;26.00;;;19.33;;
10154;SDS011;5118;48.570;7.916;2022-11-10T00:09:11;22.30;;;16.67;;
10154;SDS011;5118;48.570;7.916;2022-11-10T00:12:02;27.13;;;17.80;;
10154;SDS011;5118;48.570;7.916;2022-11-10T00:14:50;28.93;;;18.40;;
10154;SDS011;5118;48.570;7.916;2022-11-10T00:17:55;27.30;;;18.20;;
10154;SDS011;5118;48.570;7.916;2022-11-10T00:20:42;25.43;;;20.73;;
10154;SDS011;5118;48.570;7.916;2022-11-10T00:23:28;20.03;;;15.73;;
10154;SDS011;5118;48.570;7.916;2022-11-10T00:26:17;29.43;;;18.33;;
10154;SDS011;5118;48.570;7.916;2022-11-10T00:29:05;19.73;;;16.10;;
10154;SDS011;5118;48.570;7.916;2022-11-10T00:31:51;29.13;;;19.90;;
10154;SDS011;5118;48.570;7.916;2022-11-10T00:34:38;35.80;;;19.50;;
10154;SDS011;5118;48.570;7.916;2022-11-10T00:37:25;29.63;;;19.03;;
10154;SDS011;5118;48.570;7.916;2022-11-10T00:40:12;32.33;;;19.40;;
10154;SDS011;5118;48.570;7.916;2022-11-10T00:43:00;28.03;;;18.63;;
10154;SDS011;5118;48.570;7.916;2022-11-10T00:45:47;41.40;;;26.17;;
10154;SDS011;5118;48.570;7.916;2022-11-10T00:48:35;45.03;;;25.87;;
10154;SDS011;5118;48.570;7.916;2022-11-10T00:51:23;37.40;;;27.43;;
10154;SDS011;5118;48.570;7.916;2022-11-10T00:54:11;36.83;;;25.23;;
10154;SDS011;5118;48.570;7.916;2022-11-10T00:56:58;30.63;;;19.93;;
10154;SDS011;5118;48.570;7.916;2022-11-10T01:00:04;31.73;;;21.70;;
10154;SDS011;5118;48.570;7.916;2022-11-10T01:02:52;30.50;;;22.40;;
10154;SDS011;5118;48.570;7.916;2022-11-10T01:05:41;37.97;;;25.53;;
10154;SDS011;5118;48.570;7.916;2022-11-10T01:08:29;31.60;;;22.57;;
10154;SDS011;5118;48.570;7.916;2022-11-10T01:11:17;33.77;;;22.13;;
10154;SDS011;5118;48.570;7.916;2022-11-10T01:14:05;33.80;;;21.00;;
10154;SDS011;5118;48.570;7.916;2022-11-10T01:16:54;30.87;;;19.70;;
10154;SDS011;5118;48.570;7.916;2022-11-10T01:19:41;31.63;;;19.90;;
10154;SDS011;5118;48.570;7.916;2022-11-10T01:22:28;39.77;;;21.30;;
10154;SDS011;5118;48.570;7.916;2022-11-10T01:25:15;31.37;;;21.13;;
10154;SDS011;5118;48.570;7.916;2022-11-10T01:28:03;29.43;;;20.00;;
10154;SDS011;5118;48.570;7.916;2022-11-10T01:30:55;29.97;;;19.60;;
10154;SDS011;5118;48.570;7.916;2022-11-10T01:33:44;29.77;;;19.10;;
10154;SDS011;5118;48.570;7.916;2022-11-10T01:36:30;25.90;;;19.40;;
10154;SDS011;5118;48.570;7.916;2022-11-10T01:39:17;44.63;;;23.67;;
10154;SDS011;5118;48.570;7.916;2022-11-10T01:42:04;34.13;;;21.13;;
10154;SDS011;5118;48.570;7.916;2022-11-10T01:48:16;38.70;;;23.90;;
10154;SDS011;5118;48.570;7.916;2022-11-10T01:51:16;47.97;;;24.97;;
10154;SDS011;5118;48.570;7.916;2022-11-10T01:54:07;62.13;;;26.83;;
10154;SDS011;5118;48.570;7.916;2022-11-10T01:56:57;42.03;;;24.53;;
10154;SDS011;5118;48.570;7.916;2022-11-10T01:59:47;49.07;;;26.13;;
10154;SDS011;5118;48.570;7.916;2022-11-10T02:02:35;41.33;;;25.17;;
10154;SDS011;5118;48.570;7.916;2022-11-10T02:05:26;38.23;;;24.00;;
10154;SDS011;5118;48.570;7.916;2022-11-10T02:08:15;47.90;;;25.33;;
10154;SDS011;5118;48.570;7.916;2022-11-10T02:11:03;48.97;;;25.30;;
10154;SDS011;5118;48.570;7.916;2022-11-10T02:13:50;42.10;;;24.90;;
10154;SDS011;5118;48.570;7.916;2022-11-10T02:16:38;50.37;;;25.97;;
10154;SDS011;5118;48.570;7.916;2022-11-10T02:19:25;48.27;;;26.53;;
10154;SDS011;5118;48.570;7.916;2022-11-10T02:22:14;43.87;;;26.13;;
10154;SDS011;5118;48.570;7.916;2022-11-10T02:25:01;46.40;;;25.90;;
10154;SDS011;5118;48.570;7.916;2022-11-10T02:27:48;45.00;;;25.80;;
10154;SDS011;5118;48.570;7.916;2022-11-10T02:30:35;48.70;;;26.50;;
10154;SDS011;5118;48.570;7.916;2022-11-10T02:33:22;49.13;;;25.03;;
10154;SDS011;5118;48.570;7.916;2022-11-10T02:36:09;39.93;;;23.63;;
10154;SDS011;5118;48.570;7.916;2022-11-10T02:38:58;59.13;;;27.43;;
10154;SDS011;5118;48.570;7.916;2022-11-10T02:41:45;67.50;;;29.20;;
10154;SDS011;5118;48.570;7.916;2022-11-10T02:44:32;55.83;;;28.07;;
10154;SDS011;5118;48.570;7.916;2022-11-10T02:47:20;64.43;;;28.87;;
10154;SDS011;5118;48.570;7.916;2022-11-10T02:50:08;50.07;;;26.30;;
10154;SDS011;5118;48.570;7.916;2022-11-10T02:52:55;71.23;;;29.50;;
10154;SDS011;5118;48.570;7.916;2022-11-10T02:55:43;54.93;;;27.07;;
10154;SDS011;5118;48.570;7.916;2022-11-10T02:58:30;55.50;;;28.10;;
10154;SDS011;5118;48.570;7.916;2022-11-10T03:01:17;48.10;;;27.27;;
10154;SDS011;5118;48.570;7.916;2022-11-10T03:04:05;44.50;;;24.20;;
10154;SDS011;5118;48.570;7.916;2022-11-10T03:06:52;53.20;;;25.37;;
10154;SDS011;5118;48.570;7.916;2022-11-10T03:09:39;45.57;;;24.83;;
10154;SDS011;5118;48.570;7.916;2022-11-10T03:12:27;45.03;;;26.73;;
10154;SDS011;5118;48.570;7.916;2022-11-10T03:15:14;47.50;;;26.53;;
10154;SDS011;5118;48.570;7.916;2022-11-10T03:18:02;46.47;;;27.23;;
10154;SDS011;5118;48.570;7.916;2022-11-10T03:20:49;40.47;;;25.83;;
10154;SDS011;5118;48.570;7.916;2022-11-10T03:23:36;44.67;;;25.63;;
10154;SDS011;5118;48.570;7.916;2022-11-10T03:26:23;40.20;;;24.83;;
10154;SDS011;5118;48.570;7.916;2022-11-10T03:29:11;47.00;;;26.57;;
10154;SDS011;5118;48.570;7.916;2022-11-10T03:31:58;51.70;;;26.33;;
10154;SDS011;5118;48.570;7.916;2022-11-10T03:34:45;52.97;;;26.70;;
10154;SDS011;5118;48.570;7.916;2022-11-10T03:37:31;47.97;;;25.00;;
10154;SDS011;5118;48.570;7.916;2022-11-10T03:40:19;41.53;;;24.53;;
10154;SDS011;5118;48.570;7.916;2022-11-10T03:43:06;43.10;;;25.10;;
10154;SDS011;5118;48.570;7.916;2022-11-10T03:45:54;43.20;;;22.60;;
10154;SDS011;5118;48.570;7.916;2022-11-10T03:48:41;52.93;;;23.67;;
10154;SDS011;5118;48.570;7.916;2022-11-10T03:51:36;49.57;;;23.43;;
10154;SDS011;5118;48.570;7.916;2022-11-10T03:54:23;47.40;;;24.03;;
10154;SDS011;5118;48.570;7.916;2022-11-10T03:57:10;45.03;;;24.30;;
10154;SDS011;5118;48.570;7.916;2022-11-10T03:59:57;81.20;;;26.70;;
10154;SDS011;5118;48.570;7.916;2022-11-10T04:02:45;124.53;;;26.93;;
10154;SDS011;5118;48.570;7.916;2022-11-10T04:05:32;47.33;;;24.10;;
10154;SDS011;5118;48.570;7.916;2022-11-10T04:08:36;88.30;;;24.10;;
10154;SDS011;5118;48.570;7.916;2022-11-10T04:11:40;173.80;;;25.80;;
10154;SDS011;5118;48.570;7.916;2022-11-10T04:14:45;320.67;;;27.13;;
10154;SDS011;5118;48.570;7.916;2022-11-10T04:17:51;318.83;;;26.73;;
10154;SDS011;5118;48.570;7.916;2022-11-10T04:20:38;216.47;;;25.57;;
10154;SDS011;5118;48.570;7.916;2022-11-10T04:23:25;159.70;;;24.97;;
10154;SDS011;5118;48.570;7.916;2022-11-10T04:26:15;97.60;;;23.10;;
10154;SDS011;5118;48.570;7.916;2022-11-10T04:29:14;92.30;;;24.80;;
10154;SDS011;5118;48.570;7.916;2022-11-10T04:32:03;60.13;;;21.97;;
10154;SDS011;5118;48.570;7.916;2022-11-10T04:34:51;40.03;;;20.13;;
10154;SDS011;5118;48.570;7.916;2022-11-10T04:37:38;24.27;;;16.67;;
10154;SDS011;5118;48.570;7.916;2022-11-10T04:40:25;35.00;;;17.57;;
10154;SDS011;5118;48.570;7.916;2022-11-10T04:43:11;34.03;;;17.90;;
10154;SDS011;5118;48.570;7.916;2022-11-10T04:45:58;32.83;;;18.13;;
10154;SDS011;5118;48.570;7.916;2022-11-10T04:48:45;32.67;;;18.40;;
10154;SDS011;5118;48.570;7.916;2022-11-10T04:51:35;32.60;;;18.83;;
10154;SDS011;5118;48.570;7.916;2022-11-10T04:54:24;42.90;;;20.07;;
10154;SDS011;5118;48.570;7.916;2022-11-10T04:57:11;33.17;;;18.00;;
10154;SDS011;5118;48.570;7.916;2022-11-10T04:59:58;31.07;;;18.90;;
10154;SDS011;5118;48.570;7.916;2022-11-10T05:02:44;34.63;;;21.17;;
10154;SDS011;5118;48.570;7.916;2022-11-10T05:05:31;50.90;;;23.40;;
10154;SDS011;5118;48.570;7.916;2022-11-10T05:08:20;59.77;;;23.20;;
10154;SDS011;5118;48.570;7.916;2022-11-10T05:11:07;55.33;;;24.10;;
10154;SDS011;5118;48.570;7.916;2022-11-10T05:13:54;51.47;;;21.80;;
10154;SDS011;5118;48.570;7.916;2022-11-10T05:16:41;42.53;;;20.83;;
10154;SDS011;5118;48.570;7.916;2022-11-10T05:19:29;42.50;;;21.13;;
10154;SDS011;5118;48.570;7.916;2022-11-10T05:22:15;42.33;;;19.73;;
10154;SDS011;5118;48.570;7.916;2022-11-10T05:25:04;46.40;;;19.03;;
10154;SDS011;5118;48.570;7.916;2022-11-10T05:27:52;42.40;;;24.93;;
10154;SDS011;5118;48.570;7.916;2022-11-10T05:30:39;73.97;;;22.10;;
10154;SDS011;5118;48.570;7.916;2022-11-10T05:33:26;78.03;;;21.77;;
10154;SDS011;5118;48.570;7.916;2022-11-10T05:36:13;106.80;;;23.40;;
10154;SDS011;5118;48.570;7.916;2022-11-10T05:39:00;101.20;;;21.03;;
10154;SDS011;5118;48.570;7.916;2022-11-10T05:41:48;121.77;;;24.80;;
10154;SDS011;5118;48.570;7.916;2022-11-10T05:44:35;334.00;;;41.27;;
10154;SDS011;5118;48.570;7.916;2022-11-10T05:47:22;273.00;;;34.07;;
10154;SDS011;5118;48.570;7.916;2022-11-10T05:50:09;308.10;;;48.43;;
10154;SDS011;5118;48.570;7.916;2022-11-10T05:52:56;93.63;;;23.60;;
10154;SDS011;5118;48.570;7.916;2022-11-10T05:55:43;685.30;;;95.13;;
10154;SDS011;5118;48.570;7.916;2022-11-10T05:58:31;661.97;;;119.17;;
10154;SDS011;5118;48.570;7.916;2022-11-10T06:01:18;384.03;;;81.37;;
10154;SDS011;5118;48.570;7.916;2022-11-10T06:04:05;168.60;;;46.33;;
10154;SDS011;5118;48.570;7.916;2022-11-10T06:06:52;62.60;;;25.53;;
10154;SDS011;5118;48.570;7.916;2022-11-10T06:09:39;69.37;;;27.27;;
10154;SDS011;5118;48.570;7.916;2022-11-10T06:12:25;139.13;;;38.63;;
10154;SDS011;5118;48.570;7.916;2022-11-10T06:15:16;110.63;;;38.60;;
10154;SDS011;5118;48.570;7.916;2022-11-10T06:18:02;175.83;;;27.57;;
10154;SDS011;5118;48.570;7.916;2022-11-10T06:20:50;88.03;;;25.00;;
10154;SDS011;5118;48.570;7.916;2022-11-10T06:23:36;86.90;;;21.90;;
10154;SDS011;5118;48.570;7.916;2022-11-10T06:26:23;84.43;;;33.03;;
10154;SDS011;5118;48.570;7.916;2022-11-10T06:29:10;36.37;;;16.87;;
10154;SDS011;5118;48.570;7.916;2022-11-10T06:31:58;52.30;;;20.60;;
10154;SDS011;5118;48.570;7.916;2022-11-10T06:34:45;37.00;;;19.53;;
10154;SDS011;5118;48.570;7.916;2022-11-10T06:37:33;50.07;;;23.13;;
10154;SDS011;5118;48.570;7.916;2022-11-10T06:40:20;38.20;;;20.43;;
10154;SDS011;5118;48.570;7.916;2022-11-10T06:43:07;42.83;;;19.93;;
10154;SDS011;5118;48.570;7.916;2022-11-10T06:45:55;39.70;;;25.07;;
10154;SDS011;5118;48.570;7.916;2022-11-10T06:48:45;33.87;;;23.23;;
10154;SDS011;5118;48.570;7.916;2022-11-10T06:51:32;28.57;;;20.73;;
10154;SDS011;5118;48.570;7.916;2022-11-10T06:54:19;33.80;;;24.17;;
10154;SDS011;5118;48.570;7.916;2022-11-10T06:57:06;30.43;;;20.63;;
10154;SDS011;5118;48.570;7.916;2022-11-10T06:59:53;37.73;;;21.47;;
10154;SDS011;5118;48.570;7.916;2022-11-10T07:02:40;38.80;;;26.20;;
10154;SDS011;5118;48.570;7.916;2022-11-10T07:05:28;39.13;;;25.07;;
10154;SDS011;5118;48.570;7.916;2022-11-10T07:08:15;44.07;;;22.40;;
10154;SDS011;5118;48.570;7.916;2022-11-10T07:11:02;35.17;;;14.40;;
10154;SDS011;5118;48.570;7.916;2022-11-10T07:13:49;49.40;;;19.80;;
10154;SDS011;5118;48.570;7.916;2022-11-10T07:16:36;45.30;;;21.53;;
10154;SDS011;5118;48.570;7.916;2022-11-10T07:19:23;46.07;;;20.50;;
10154;SDS011;5118;48.570;7.916;2022-11-10T07:22:12;60.43;;;24.47;;
10154;SDS011;5118;48.570;7.916;2022-11-10T07:24:59;82.43;;;31.63;;
10154;SDS011;5118;48.570;7.916;2022-11-10T07:27:51;26.93;;;18.83;;
10154;SDS011;5118;48.570;7.916;2022-11-10T07:30:39;37.40;;;21.93;;
10154;SDS011;5118;48.570;7.916;2022-11-10T07:33:26;46.03;;;23.13;;
10154;SDS011;5118;48.570;7.916;2022-11-10T07:36:14;19.87;;;15.47;;
10154;SDS011;5118;48.570;7.916;2022-11-10T07:39:03;24.10;;;17.60;;
10154;SDS011;5118;48.570;7.916;2022-11-10T07:41:50;48.20;;;23.60;;
10154;SDS011;5118;48.570;7.916;2022-11-10T07:44:37;39.03;;;23.67;;
10154;SDS011;5118;48.570;7.916;2022-11-10T07:47:23;41.93;;;25.83;;
10154;SDS011;5118;48.570;7.916;2022-11-10T07:50:10;36.30;;;26.90;;
10154;SDS011;5118;48.570;7.916;2022-11-10T07:53:01;49.07;;;30.37;;
10154;SDS011;5118;48.570;7.916;2022-11-10T07:55:50;44.60;;;28.33;;
10154;SDS011;5118;48.570;7.916;2022-11-10T07:58:39;47.07;;;27.77;;
10154;SDS011;5118;48.570;7.916;2022-11-10T08:01:25;53.87;;;29.17;;
10154;SDS011;5118;48.570;7.916;2022-11-10T08:04:13;56.03;;;30.60;;
10154;SDS011;5118;48.570;7.916;2022-11-10T08:07:00;41.70;;;26.70;;
10154;SDS011;5118;48.570;7.916;2022-11-10T08:09:46;46.00;;;27.53;;
10154;SDS011;5118;48.570;7.916;2022-11-10T08:12:35;47.70;;;28.13;;
10154;SDS011;5118;48.570;7.916;2022-11-10T08:15:23;44.67;;;28.33;;
10154;SDS011;5118;48.570;7.916;2022-11-10T08:18:13;88.97;;;34.97;;
10154;SDS011;5118;48.570;7.916;2022-11-10T08:21:03;198.47;;;42.23;;
10154;SDS011;5118;48.570;7.916;2022-11-10T08:23:50;230.10;;;44.67;;
10154;SDS011;5118;48.570;7.916;2022-11-10T08:26:37;203.40;;;37.33;;
10154;SDS011;5118;48.570;7.916;2022-11-10T08:29:25;242.50;;;36.00;;
10154;SDS011;5118;48.570;7.916;2022-11-10T08:32:12;241.97;;;34.37;;
10154;SDS011;5118;48.570;7.916;2022-11-10T08:34:59;200.60;;;35.43;;
10154;SDS011;5118;48.570;7.916;2022-11-10T08:37:46;179.73;;;33.00;;
10154;SDS011;5118;48.570;7.916;2022-11-10T08:40:33;220.03;;;38.40;;
10154;SDS011;5118;48.570;7.916;2022-11-10T08:43:20;158.07;;;27.30;;
10154;SDS011;5118;48.570;7.916;2022-11-10T08:46:09;79.73;;;28.00;;
10154;SDS011;5118;48.570;7.916;2022-11-10T08:48:56;38.80;;;23.90;;
10154;SDS011;5118;48.570;7.916;2022-11-10T08:51:43;28.77;;;20.00;;
10154;SDS011;5118;48.570;7.916;2022-11-10T08:54:29;32.63;;;20.90;;
10154;SDS011;5118;48.570;7.916;2022-11-10T08:57:16;52.30;;;25.03;;
10154;SDS011;5118;48.570;7.916;2022-11-10T09:00:03;23.07;;;17.43;;
10154;SDS011;5118;48.570;7.916;2022-11-10T09:02:53;20.70;;;16.37;;
10154;SDS011;5118;48.570;7.916;2022-11-10T09:05:40;30.00;;;18.00;;
10154;SDS011;5118;48.570;7.916;2022-11-10T09:08:28;17.03;;;14.13;;
10154;SDS011;5118;48.570;7.916;2022-11-10T09:11:18;38.43;;;16.90;;
10154;SDS011;5118;48.570;7.916;2022-11-10T09:14:04;20.77;;;15.30;;
10154;SDS011;5118;48.570;7.916;2022-11-10T09:16:51;15.73;;;13.97;;
10154;SDS011;5118;48.570;7.916;2022-11-10T09:19:39;16.97;;;13.70;;
10154;SDS011;5118;48.570;7.916;2022-11-10T09:22:26;15.07;;;13.57;;
10154;SDS011;5118;48.570;7.916;2022-11-10T09:25:13;15.20;;;13.70;;
10154;SDS011;5118;48.570;7.916;2022-11-10T09:28:00;12.90;;;11.53;;
10154;SDS011;5118;48.570;7.916;2022-11-10T09:30:47;12.47;;;11.10;;
10154;SDS011;5118;48.570;7.916;2022-11-10T09:33:36;14.37;;;11.20;;
10154;SDS011;5118;48.570;7.916;2022-11-10T09:36:24;13.97;;;10.77;;
10154;SDS011;5118;48.570;7.916;2022-11-10T09:39:11;11.47;;;10.27;;
10154;SDS011;5118;48.570;7.916;2022-11-10T09:41:59;11.93;;;10.53;;
10154;SDS011;5118;48.570;7.916;2022-11-10T09:44:48;13.07;;;11.60;;
10154;SDS011;5118;48.570;7.916;2022-11-10T09:47:39;12.57;;;11.17;;
10154;SDS011;5118;48.570;7.916;2022-11-10T09:50:46;13.77;;;12.37;;
10154;SDS011;5118;48.570;7.916;2022-11-10T09:53:40;12.93;;;11.60;;
10154;SDS011;5118;48.570;7.916;2022-11-10T09:56:33;17.23;;;11.67;;
10154;SDS011;5118;48.570;7.916;2022-11-10T09:59:23;12.27;;;11.03;;
10154;SDS011;5118;48.570;7.916;2022-11-10T10:02:18;12.27;;;11.07;;
10154;SDS011;5118;48.570;7.916;2022-11-10T10:05:25;15.03;;;9.93;;
10154;SDS011;5118;48.570;7.916;2022-11-10T10:08:32;12.93;;;11.60;;
10154;SDS011;5118;48.570;7.916;2022-11-10T10:11:41;9.93;;;8.87;;
10154;SDS011;5118;48.570;7.916;2022-11-10T10:14:41;11.23;;;10.03;;
10154;SDS011;5118;48.570;7.916;2022-11-10T10:17:42;11.10;;;10.00;;
10154;SDS011;5118;48.570;7.916;2022-11-10T10:20:40;11.83;;;10.40;;
10154;SDS011;5118;48.570;7.916;2022-11-10T10:23:34;10.90;;;9.80;;
10154;SDS011;5118;48.570;7.916;2022-11-10T10:26:45;9.55;;;8.50;;
10154;SDS011;5118;48.570;7.916;2022-11-10T10:29:37;9.25;;;8.35;;
10154;SDS011;5118;48.570;7.916;2022-11-10T10:32:26;8.68;;;7.88;;
10154;SDS011;5118;48.570;7.916;2022-11-10T10:35:14;8.23;;;7.45;;
10154;SDS011;5118;48.570;7.916;2022-11-10T10:38:02;10.63;;;7.45;;
10154;SDS011;5118;48.570;7.916;2022-11-10T10:40:51;8.73;;;7.60;;
10154;SDS011;5118;48.570;7.916;2022-11-10T10:43:45;8.18;;;7.38;;
10154;SDS011;5118;48.570;7.916;2022-11-10T10:46:33;8.77;;;7.22;;
10154;SDS011;5118;48.570;7.916;2022-11-10T10:49:30;8.70;;;7.13;;
10154;SDS011;5118;48.570;7.916;2022-11-10T10:52:20;6.90;;;6.10;;
10154;SDS011;5118;48.570;7.916;2022-11-10T10:55:09;7.28;;;6.53;;
10154;SDS011;5118;48.570;7.916;2022-11-10T10:57:59;6.80;;;6.03;;
10154;SDS011;5118;48.570;7.916;2022-11-10T11:00:49;7.72;;;6.38;;
10154;SDS011;5118;48.570;7.916;2022-11-10T11:03:39;6.30;;;5.70;;
10154;SDS011;5118;48.570;7.916;2022-11-10T11:06:27;7.55;;;5.22;;
10154;SDS011;5118;48.570;7.916;2022-11-10T11:09:16;7.30;;;5.43;;
10154;SDS011;5118;48.570;7.916;2022-11-10T11:12:09;6.20;;;5.05;;
10154;SDS011;5118;48.570;7.916;2022-11-10T11:15:09;5.70;;;4.85;;
10154;SDS011;5118;48.570;7.916;2022-11-10T11:18:01;5.60;;;5.00;;
10154;SDS011;5118;48.570;7.916;2022-11-10T11:20:56;9.60;;;5.88;;
10154;SDS011;5118;48.570;7.916;2022-11-10T11:27:02;7.13;;;4.70;;
10154;SDS011;5118;48.570;7.916;2022-11-10T11:30:00;11.98;;;7.68;;
10154;SDS011;5118;48.570;7.916;2022-11-10T11:36:08;6.10;;;4.63;;
10154;SDS011;5118;48.570;7.916;2022-11-10T11:39:11;3.97;;;2.97;;
10154;SDS011;5118;48.570;7.916;2022-11-10T11:42:07;6.35;;;2.97;;
10154;SDS011;5118;48.570;7.916;2022-11-10T11:45:09;3.70;;;3.17;;
10154;SDS011;5118;48.570;7.916;2022-11-10T11:48:09;4.90;;;4.40;;
10154;SDS011;5118;48.570;7.916;2022-11-10T11:51:14;7.28;;;4.00;;
10154;SDS011;5118;48.570;7.916;2022-11-10T11:57:15;5.45;;;3.88;;
10154;SDS011;5118;48.570;7.916;2022-11-10T12:00:17;6.63;;;3.50;;
10154;SDS011;5118;48.570;7.916;2022-11-10T12:03:10;6.53;;;3.40;;
10154;SDS011;5118;48.570;7.916;2022-11-10T12:06:20;4.30;;;3.63;;
10154;SDS011;5118;48.570;7.916;2022-11-10T12:09:19;5.03;;;3.50;;
10154;SDS011;5118;48.570;7.916;2022-11-10T12:12:20;6.40;;;3.60;;
10154;SDS011;5118;48.570;7.916;2022-11-10T12:15:23;6.30;;;3.75;;
10154;SDS011;5118;48.570;7.916;2022-11-10T12:18:19;8.10;;;5.07;;
10154;SDS011;5118;48.570;7.916;2022-11-10T12:21:17;4.97;;;3.90;;
10154;SDS011;5118;48.570;7.916;2022-11-10T12:24:17;6.25;;;4.15;;
10154;SDS011;5118;48.570;7.916;2022-11-10T12:27:23;3.85;;;2.65;;
10154;SDS011;5118;48.570;7.916;2022-11-10T12:30:14;5.03;;;3.75;;
10154;SDS011;5118;48.570;7.916;2022-11-10T12:33:03;4.50;;;3.10;;
10154;SDS011;5118;48.570;7.916;2022-11-10T12:35:59;5.35;;;3.38;;
10154;SDS011;5118;48.570;7.916;2022-11-10T12:38:52;4.05;;;2.60;;
10154;SDS011;5118;48.570;7.916;2022-11-10T12:41:50;4.93;;;3.60;;
10154;SDS011;5118;48.570;7.916;2022-11-10T12:44:49;9.25;;;3.60;;
10154;SDS011;5118;48.570;7.916;2022-11-10T12:47:46;3.78;;;2.63;;
10154;SDS011;5118;48.570;7.916;2022-11-10T12:50:37;4.53;;;3.33;;
10154;SDS011;5118;48.570;7.916;2022-11-10T12:53:34;4.07;;;3.10;;
10154;SDS011;5118;48.570;7.916;2022-11-10T12:56:25;4.45;;;2.90;;
10154;SDS011;5118;48.570;7.916;2022-11-10T12:59:22;3.50;;;2.88;;
10154;SDS011;5118;48.570;7.916;2022-11-10T13:02:16;4.20;;;2.92;;
10154;SDS011;5118;48.570;7.916;2022-11-10T13:05:16;6.00;;;3.78;;
10154;SDS011;5118;48.570;7.916;2022-11-10T13:08:16;5.43;;;3.50;;
10154;SDS011;5118;48.570;7.916;2022-11-10T13:11:28;7.38;;;5.35;;
10154;SDS011;5118;48.570;7.916;2022-11-10T13:14:19;5.10;;;3.20;;
10154;SDS011;5118;48.570;7.916;2022-11-10T13:20:44;3.70;;;2.72;;
10154;SDS011;5118;48.570;7.916;2022-11-10T13:23:37;5.35;;;3.38;;
10154;SDS011;5118;48.570;7.916;2022-11-10T13:27:10;5.43;;;3.28;;
10154;SDS011;5118;48.570;7.916;2022-11-10T13:29:59;4.05;;;2.85;;
10154;SDS011;5118;48.570;7.916;2022-11-10T13:32:46;6.30;;;3.35;;
10154;SDS011;5118;48.570;7.916;2022-11-10T13:38:40;4.72;;;2.60;;
10154;SDS011;5118;48.570;7.916;2022-11-10T13:41:29;6.13;;;2.70;;
10154;SDS011;5118;48.570;7.916;2022-11-10T13:44:23;6.50;;;4.03;;
10154;SDS011;5118;48.570;7.916;2022-11-10T13:47:21;3.67;;;2.50;;
10154;SDS011;5118;48.570;7.916;2022-11-10T13:50:34;4.65;;;3.70;;
10154;SDS011;5118;48.570;7.916;2022-11-10T13:53:34;4.28;;;3.30;;
10154;SDS011;5118;48.570;7.916;2022-11-10T13:56:38;5.70;;;2.65;;
10154;SDS011;5118;48.570;7.916;2022-11-10T13:59:44;4.05;;;2.65;;
10154;SDS011;5118;48.570;7.916;2022-11-10T14:02:48;4.90;;;3.47;;
10154;SDS011;5118;48.570;7.916;2022-11-10T14:08:49;3.35;;;2.67;;
10154;SDS011;5118;48.570;7.916;2022-11-10T14:11:41;8.68;;;6.43;;
10154;SDS011;5118;48.570;7.916;2022-11-10T14:14:38;4.15;;;3.10;;
10154;SDS011;5118;48.570;7.916;2022-11-10T14:17:33;6.63;;;2.85;;
10154;SDS011;5118;48.570;7.916;2022-11-10T14:20:26;4.68;;;2.50;;
10154;SDS011;5118;48.570;7.916;2022-11-10T14:23:20;4.72;;;2.47;;
10154;SDS011;5118;48.570;7.916;2022-11-10T14:26:13;3.30;;;2.35;;
10154;SDS011;5118;48.570;7.916;2022-11-10T14:29:20;3.88;;;2.40;;
10154;SDS011;5118;48.570;7.916;2022-11-10T14:32:16;4.30;;;2.70;;
10154;SDS011;5118;48.570;7.916;2022-11-10T14:35:15;3.65;;;2.70;;
10154;SDS011;5118;48.570;7.916;2022-11-10T14:38:05;5.57;;;2.90;;
10154;SDS011;5118;48.570;7.916;2022-11-10T14:41:05;5.82;;;3.03;;
10154;SDS011;5118;48.570;7.916;2022-11-10T14:43:59;6.38;;;2.90;;
10154;SDS011;5118;48.570;7.916;2022-11-10T14:46:48;3.20;;;2.17;;
10154;SDS011;5118;48.570;7.916;2022-11-10T14:49:36;4.55;;;2.47;;
10154;SDS011;5118;48.570;7.916;2022-11-10T14:52:23;6.80;;;2.70;;
10154;SDS011;5118;48.570;7.916;2022-11-10T14:55:12;3.67;;;2.00;;
10154;SDS011;5118;48.570;7.916;2022-11-10T14:58:06;6.10;;;2.67;;
10154;SDS011;5118;48.570;7.916;2022-11-10T15:00:59;4.72;;;3.53;;
10154;SDS011;5118;48.570;7.916;2022-11-10T15:03:47;6.03;;;3.72;;
10154;SDS011;5118;48.570;7.916;2022-11-10T15:06:36;9.38;;;5.57;;
10154;SDS011;5118;48.570;7.916;2022-11-10T15:09:31;6.57;;;3.55;;
10154;SDS011;5118;48.570;7.916;2022-11-10T15:12:20;3.72;;;2.67;;
10154;SDS011;5118;48.570;7.916;2022-11-10T15:15:16;5.18;;;2.92;;
10154;SDS011;5118;48.570;7.916;2022-11-10T15:18:22;4.20;;;2.83;;
10154;SDS011;5118;48.570;7.916;2022-11-10T15:21:11;4.82;;;2.85;;
10154;SDS011;5118;48.570;7.916;2022-11-10T15:24:00;4.60;;;3.00;;
10154;SDS011;5118;48.570;7.916;2022-11-10T15:26:51;8.45;;;4.05;;
10154;SDS011;5118;48.570;7.916;2022-11-10T15:29:38;7.28;;;3.95;;
10154;SDS011;5118;48.570;7.916;2022-11-10T15:32:28;9.95;;;3.80;;
10154;SDS011;5118;48.570;7.916;2022-11-10T15:35:30;6.38;;;3.80;;
10154;SDS011;5118;48.570;7.916;2022-11-10T15:38:20;6.88;;;3.97;;
10154;SDS011;5118;48.570;7.916;2022-11-10T15:41:20;8.82;;;4.78;;
10154;SDS011;5118;48.570;7.916;2022-11-10T15:44:12;11.07;;;5.80;;
10154;SDS011;5118;48.570;7.916;2022-11-10T15:47:00;7.80;;;4.90;;
10154;SDS011;5118;48.570;7.916;2022-11-10T15:49:49;7.87;;;4.80;;
10154;SDS011;5118;48.570;7.916;2022-11-10T15:52:37;9.67;;;4.73;;
10154;SDS011;5118;48.570;7.916;2022-11-10T15:55:24;7.83;;;5.30;;
10154;SDS011;5118;48.570;7.916;2022-11-10T15:58:13;10.43;;;5.83;;
10154;SDS011;5118;48.570;7.916;2022-11-10T16:01:02;8.03;;;6.30;;
10154;SDS011;5118;48.570;7.916;2022-11-10T16:03:49;10.20;;;6.30;;
10154;SDS011;5118;48.570;7.916;2022-11-10T16:06:37;10.23;;;6.13;;
10154;SDS011;5118;48.570;7.916;2022-11-10T16:09:25;9.93;;;6.20;;
10154;SDS011;5118;48.570;7.916;2022-11-10T16:12:14;8.70;;;6.53;;
10154;SDS011;5118;48.570;7.916;2022-11-10T16:15:05;10.37;;;6.97;;
10154;SDS011;5118;48.570;7.916;2022-11-10T16:17:58;13.27;;;7.17;;
10154;SDS011;5118;48.570;7.916;2022-11-10T16:20:45;17.20;;;10.90;;
10154;SDS011;5118;48.570;7.916;2022-11-10T16:23:33;15.03;;;11.37;;
10154;SDS011;5118;48.570;7.916;2022-11-10T16:26:21;15.33;;;13.73;;
10154;SDS011;5118;48.570;7.916;2022-11-10T16:29:10;19.50;;;14.23;;
10154;SDS011;5118;48.570;7.916;2022-11-10T16:32:01;16.43;;;13.30;;
10154;SDS011;5118;48.570;7.916;2022-11-10T16:34:48;15.17;;;12.37;;
10154;SDS011;5118;48.570;7.916;2022-11-10T16:37:35;15.60;;;11.90;;
10154;SDS011;5118;48.570;7.916;2022-11-10T16:40:22;14.00;;;11.00;;
10154;SDS011;5118;48.570;7.916;2022-11-10T16:43:11;14.30;;;12.73;;
10154;SDS011;5118;48.570;7.916;2022-11-10T16:46:02;17.07;;;15.23;;
10154;SDS011;5118;48.570;7.916;2022-11-10T16:48:53;24.97;;;21.47;;
10154;SDS011;5118;48.570;7.916;2022-11-10T16:51:42;31.40;;;27.17;;
10154;SDS011;5118;48.570;7.916;2022-11-10T16:54:33;25.27;;;22.00;;
10154;SDS011;5118;48.570;7.916;2022-11-10T16:57:20;32.67;;;28.70;;
10154;SDS011;5118;48.570;7.916;2022-11-10T17:00:08;19.47;;;16.73;;
10154;SDS011;5118;48.570;7.916;2022-11-10T17:02:58;24.27;;;17.60;;
10154;SDS011;5118;48.570;7.916;2022-11-10T17:05:48;19.07;;;15.10;;
10154;SDS011;5118;48.570;7.916;2022-11-10T17:08:35;16.23;;;13.37;;
10154;SDS011;5118;48.570;7.916;2022-11-10T17:11:22;15.23;;;11.77;;
10154;SDS011;5118;48.570;7.916;2022-11-10T17:14:10;13.47;;;9.70;;
10154;SDS011;5118;48.570;7.916;2022-11-10T17:16:58;12.10;;;7.87;;
10154;SDS011;5118;48.570;7.916;2022-11-10T17:19:45;9.03;;;6.10;;
10154;SDS011;5118;48.570;7.916;2022-11-10T17:22:35;10.63;;;6.63;;
10154;SDS011;5118;48.570;7.916;2022-11-10T17:25:23;12.20;;;6.13;;